sensor_id;sensor_type;location;lat;lon;timestamp;pressure;altitude;pressure_sealevel;temperature;humidity
78717;BME280;68045;50.042;14.432;2023-12-14T00:01:35;97098.78;;;8.31;89.59
78717;BME280;68045;50.042;14.432;2023-12-14T00:05:36;97098.25;;;8.29;89.01
78717;BME280;68045;50.042;14.432;2023-12-14T00:09:36;97098.50;;;8.27;89.60
78717;BME280;68045;50.042;14.432;2023-12-14T00:13:38;97099.88;;;8.13;90.00
78717;BME280;68045;50.042;14.432;2023-12-14T00:17:39;97098.91;;;8.19;90.02
78717;BME280;68045;50.042;14.432;2023-12-14T00:21:40;97101.28;;;8.38;89.62
78717;BME280;68045;50.042;14.432;2023-12-14T00:25:41;97110.59;;;8.29;89.54
78717;BME280;68045;50.042;14.432;2023-12-14T00:29:42;97113.28;;;8.34;89.75
78717;BME280;68045;50.042;14.432;2023-12-14T00:33:43;97125.50;;;8.23;90.23
78717;BME280;68045;50.042;14.432;2023-12-14T00:37:45;97133.56;;;8.16;90.46
78717;BME280;68045;50.042;14.432;2023-12-14T00:41:45;97133.19;;;8.08;90.57
78717;BME280;68045;50.042;14.432;2023-12-14T00:45:47;97131.59;;;8.07;90.49
78717;BME280;68045;50.042;14.432;2023-12-14T00:49:48;97138.59;;;8.18;89.71
78717;BME280;68045;50.042;14.432;2023-12-14T00:53:48;97142.56;;;8.20;89.25
78717;BME280;68045;50.042;14.432;2023-12-14T00:57:49;97151.91;;;8.11;89.00
78717;BME280;68045;50.042;14.432;2023-12-14T01:01:50;97156.38;;;7.94;89.36
78717;BME280;68045;50.042;14.432;2023-12-14T01:05:51;97163.03;;;8.02;89.06
78717;BME280;68045;50.042;14.432;2023-12-14T01:09:52;97182.19;;;7.97;89.41
78717;BME280;68045;50.042;14.432;2023-12-14T01:13:53;97183.81;;;8.03;88.35
78717;BME280;68045;50.042;14.432;2023-12-14T01:17:54;97178.72;;;8.13;88.22
78717;BME280;68045;50.042;14.432;2023-12-14T01:21:55;97194.50;;;8.13;87.92
78717;BME280;68045;50.042;14.432;2023-12-14T01:25:56;97193.69;;;8.13;87.66
78717;BME280;68045;50.042;14.432;2023-12-14T01:29:56;97192.34;;;8.10;87.67
78717;BME280;68045;50.042;14.432;2023-12-14T01:33:57;97201.09;;;8.16;87.23
78717;BME280;68045;50.042;14.432;2023-12-14T01:37:58;97202.94;;;8.15;87.94
78717;BME280;68045;50.042;14.432;2023-12-14T01:41:59;97193.94;;;8.11;88.06
78717;BME280;68045;50.042;14.432;2023-12-14T01:46:00;97202.84;;;8.10;87.81
78717;BME280;68045;50.042;14.432;2023-12-14T01:50:01;97202.84;;;8.10;88.20
78717;BME280;68045;50.042;14.432;2023-12-14T01:54:03;97203.34;;;8.07;88.35
78717;BME280;68045;50.042;14.432;2023-12-14T01:58:03;97220.94;;;8.07;88.25
78717;BME280;68045;50.042;14.432;2023-12-14T02:02:04;97223.81;;;8.05;88.62
78717;BME280;68045;50.042;14.432;2023-12-14T02:06:06;97227.78;;;8.08;88.51
78717;BME280;68045;50.042;14.432;2023-12-14T02:10:08;97231.69;;;8.05;88.23
78717;BME280;68045;50.042;14.432;2023-12-14T02:14:09;97231.13;;;8.20;87.74
78717;BME280;68045;50.042;14.432;2023-12-14T02:18:10;97238.22;;;8.19;87.94
78717;BME280;68045;50.042;14.432;2023-12-14T02:22:11;97247.13;;;8.02;87.50
78717;BME280;68045;50.042;14.432;2023-12-14T02:26:13;97250.63;;;7.90;88.00
78717;BME280;68045;50.042;14.432;2023-12-14T02:30:14;97251.88;;;7.71;88.70
78717;BME280;68045;50.042;14.432;2023-12-14T02:34:16;97260.56;;;7.88;88.13
78717;BME280;68045;50.042;14.432;2023-12-14T02:38:17;97258.66;;;7.84;88.57
78717;BME280;68045;50.042;14.432;2023-12-14T02:42:18;97257.72;;;7.90;88.58
78717;BME280;68045;50.042;14.432;2023-12-14T02:46:18;97259.38;;;7.96;88.49
78717;BME280;68045;50.042;14.432;2023-12-14T02:50:19;97256.75;;;7.96;88.09
78717;BME280;68045;50.042;14.432;2023-12-14T02:54:20;97255.81;;;8.02;87.85
78717;BME280;68045;50.042;14.432;2023-12-14T02:58:21;97263.44;;;7.87;88.62
78717;BME280;68045;50.042;14.432;2023-12-14T03:02:22;97265.47;;;7.96;88.34
78717;BME280;68045;50.042;14.432;2023-12-14T03:06:23;97270.47;;;7.98;87.72
78717;BME280;68045;50.042;14.432;2023-12-14T03:10:23;97280.09;;;7.92;87.93
78717;BME280;68045;50.042;14.432;2023-12-14T03:14:24;97288.47;;;7.89;88.44
78717;BME280;68045;50.042;14.432;2023-12-14T03:18:25;97292.19;;;7.93;87.95
78717;BME280;68045;50.042;14.432;2023-12-14T03:22:26;97292.47;;;7.80;88.48
78717;BME280;68045;50.042;14.432;2023-12-14T03:26:27;97291.59;;;7.75;88.29
78717;BME280;68045;50.042;14.432;2023-12-14T03:30:28;97301.53;;;7.72;88.09
78717;BME280;68045;50.042;14.432;2023-12-14T03:34:29;97302.84;;;7.58;88.59
78717;BME280;68045;50.042;14.432;2023-12-14T03:38:29;97306.22;;;7.42;89.63
78717;BME280;68045;50.042;14.432;2023-12-14T03:42:31;97309.41;;;7.44;89.47
78717;BME280;68045;50.042;14.432;2023-12-14T03:46:32;97314.28;;;7.52;89.17
78717;BME280;68045;50.042;14.432;2023-12-14T03:50:33;97313.59;;;7.57;89.23
78717;BME280;68045;50.042;14.432;2023-12-14T03:54:34;97308.84;;;7.42;89.34
78717;BME280;68045;50.042;14.432;2023-12-14T03:58:35;97306.81;;;7.32;89.65
78717;BME280;68045;50.042;14.432;2023-12-14T04:02:36;97317.59;;;7.07;90.80
78717;BME280;68045;50.042;14.432;2023-12-14T04:06:37;97326.50;;;7.06;91.80
78717;BME280;68045;50.042;14.432;2023-12-14T04:10:38;97336.41;;;7.04;90.74
78717;BME280;68045;50.042;14.432;2023-12-14T04:14:39;97335.41;;;6.82;92.21
78717;BME280;68045;50.042;14.432;2023-12-14T04:18:39;97341.22;;;6.60;92.99
78717;BME280;68045;50.042;14.432;2023-12-14T04:22:44;97353.50;;;6.48;93.93
78717;BME280;68045;50.042;14.432;2023-12-14T04:26:46;97357.38;;;6.46;94.73
78717;BME280;68045;50.042;14.432;2023-12-14T04:30:46;97371.84;;;6.48;95.61
78717;BME280;68045;50.042;14.432;2023-12-14T04:34:47;97368.81;;;6.63;94.21
78717;BME280;68045;50.042;14.432;2023-12-14T04:38:48;97368.22;;;6.49;93.85
78717;BME280;68045;50.042;14.432;2023-12-14T04:42:49;97383.97;;;6.49;93.37
78717;BME280;68045;50.042;14.432;2023-12-14T04:46:50;97379.94;;;6.35;92.96
78717;BME280;68045;50.042;14.432;2023-12-14T04:50:52;97382.84;;;6.15;94.23
78717;BME280;68045;50.042;14.432;2023-12-14T04:54:53;97393.63;;;6.07;95.68
78717;BME280;68045;50.042;14.432;2023-12-14T04:58:55;97404.19;;;6.00;95.17
78717;BME280;68045;50.042;14.432;2023-12-14T05:02:56;97407.97;;;5.86;95.97
78717;BME280;68045;50.042;14.432;2023-12-14T05:06:58;97413.41;;;5.85;95.69
78717;BME280;68045;50.042;14.432;2023-12-14T05:10:58;97424.78;;;5.97;96.12
78717;BME280;68045;50.042;14.432;2023-12-14T05:14:59;97422.56;;;6.12;94.99
78717;BME280;68045;50.042;14.432;2023-12-14T05:19:00;97433.44;;;5.79;95.82
78717;BME280;68045;50.042;14.432;2023-12-14T05:23:01;97433.78;;;5.83;95.56
78717;BME280;68045;50.042;14.432;2023-12-14T05:27:02;97440.94;;;5.75;95.59
78717;BME280;68045;50.042;14.432;2023-12-14T05:31:03;97449.28;;;5.84;95.59
78717;BME280;68045;50.042;14.432;2023-12-14T05:35:05;97459.19;;;5.82;95.92
78717;BME280;68045;50.042;14.432;2023-12-14T05:39:06;97454.66;;;5.89;94.68
78717;BME280;68045;50.042;14.432;2023-12-14T05:43:07;97462.25;;;5.79;94.42
78717;BME280;68045;50.042;14.432;2023-12-14T05:47:08;97468.28;;;5.61;95.39
78717;BME280;68045;50.042;14.432;2023-12-14T05:51:09;97471.09;;;5.60;96.56
78717;BME280;68045;50.042;14.432;2023-12-14T05:55:10;97477.06;;;5.67;96.08
78717;BME280;68045;50.042;14.432;2023-12-14T05:59:11;97497.84;;;5.62;96.58
78717;BME280;68045;50.042;14.432;2023-12-14T06:03:12;97506.16;;;5.59;96.69
78717;BME280;68045;50.042;14.432;2023-12-14T06:07:15;97518.63;;;5.57;97.13
78717;BME280;68045;50.042;14.432;2023-12-14T06:11:16;97521.00;;;5.65;97.35
78717;BME280;68045;50.042;14.432;2023-12-14T06:15:17;97520.13;;;5.71;96.82
78717;BME280;68045;50.042;14.432;2023-12-14T06:19:18;97535.66;;;5.47;98.32
78717;BME280;68045;50.042;14.432;2023-12-14T06:23:19;97534.66;;;5.67;97.24
78717;BME280;68045;50.042;14.432;2023-12-14T06:27:20;97544.84;;;5.75;95.71
78717;BME280;68045;50.042;14.432;2023-12-14T06:31:24;97544.97;;;5.62;96.92
78717;BME280;68045;50.042;14.432;2023-12-14T06:35:24;97549.19;;;5.63;97.86
78717;BME280;68045;50.042;14.432;2023-12-14T06:39:25;97566.50;;;5.64;97.45
78717;BME280;68045;50.042;14.432;2023-12-14T06:43:26;97573.19;;;5.60;96.85
78717;BME280;68045;50.042;14.432;2023-12-14T06:47:27;97572.44;;;5.53;97.67
78717;BME280;68045;50.042;14.432;2023-12-14T06:51:28;97578.31;;;5.48;97.73
78717;BME280;68045;50.042;14.432;2023-12-14T06:55:29;97584.03;;;5.38;98.55
78717;BME280;68045;50.042;14.432;2023-12-14T06:59:30;97582.84;;;5.34;98.47
78717;BME280;68045;50.042;14.432;2023-12-14T07:03:32;97587.75;;;5.49;98.74
78717;BME280;68045;50.042;14.432;2023-12-14T07:07:33;97597.69;;;5.40;98.60
78717;BME280;68045;50.042;14.432;2023-12-14T07:11:34;97600.38;;;5.34;99.40
78717;BME280;68045;50.042;14.432;2023-12-14T07:15:35;97608.75;;;5.42;99.04
78717;BME280;68045;50.042;14.432;2023-12-14T07:19:36;97613.97;;;5.42;99.04
78717;BME280;68045;50.042;14.432;2023-12-14T07:23:37;97631.88;;;5.45;98.70
78717;BME280;68045;50.042;14.432;2023-12-14T07:27:38;97635.53;;;5.44;98.02
78717;BME280;68045;50.042;14.432;2023-12-14T07:31:38;97640.81;;;5.38;98.02
78717;BME280;68045;50.042;14.432;2023-12-14T07:35:40;97647.31;;;5.29;98.56
78717;BME280;68045;50.042;14.432;2023-12-14T07:39:41;97646.41;;;5.41;98.06
78717;BME280;68045;50.042;14.432;2023-12-14T07:43:43;97654.16;;;5.30;99.09
78717;BME280;68045;50.042;14.432;2023-12-14T07:47:44;97660.97;;;5.31;99.17
78717;BME280;68045;50.042;14.432;2023-12-14T07:51:46;97663.16;;;5.34;99.04
78717;BME280;68045;50.042;14.432;2023-12-14T07:55:47;97673.13;;;5.50;98.28
78717;BME280;68045;50.042;14.432;2023-12-14T07:59:48;97684.50;;;5.62;97.39
78717;BME280;68045;50.042;14.432;2023-12-14T08:03:49;97680.94;;;5.82;95.82
78717;BME280;68045;50.042;14.432;2023-12-14T08:07:50;97692.44;;;5.81;95.87
78717;BME280;68045;50.042;14.432;2023-12-14T08:11:53;97703.09;;;5.86;96.00
78717;BME280;68045;50.042;14.432;2023-12-14T08:15:54;97710.97;;;5.79;96.07
78717;BME280;68045;50.042;14.432;2023-12-14T08:19:54;97711.75;;;5.86;95.63
78717;BME280;68045;50.042;14.432;2023-12-14T08:23:55;97716.47;;;6.02;95.06
78717;BME280;68045;50.042;14.432;2023-12-14T08:27:56;97723.25;;;6.10;94.09
78717;BME280;68045;50.042;14.432;2023-12-14T08:31:57;97721.03;;;6.14;93.91
78717;BME280;68045;50.042;14.432;2023-12-14T08:35:59;97741.31;;;6.43;93.50
78717;BME280;68045;50.042;14.432;2023-12-14T08:40:00;97744.22;;;6.53;91.72
78717;BME280;68045;50.042;14.432;2023-12-14T08:44:01;97747.88;;;6.52;91.96
78717;BME280;68045;50.042;14.432;2023-12-14T08:48:02;97758.28;;;6.59;91.95
78717;BME280;68045;50.042;14.432;2023-12-14T08:52:03;97763.69;;;6.64;91.06
78717;BME280;68045;50.042;14.432;2023-12-14T08:56:05;97779.22;;;6.84;91.38
78717;BME280;68045;50.042;14.432;2023-12-14T09:00:06;97781.34;;;6.94;90.48
78717;BME280;68045;50.042;14.432;2023-12-14T09:04:08;97778.22;;;6.85;90.73
78717;BME280;68045;50.042;14.432;2023-12-14T09:08:09;97784.84;;;6.87;90.83
78717;BME280;68045;50.042;14.432;2023-12-14T09:12:10;97784.53;;;6.96;90.39
78717;BME280;68045;50.042;14.432;2023-12-14T09:16:11;97795.28;;;7.12;89.77
78717;BME280;68045;50.042;14.432;2023-12-14T09:20:14;97800.16;;;7.09;90.04
78717;BME280;68045;50.042;14.432;2023-12-14T09:24:15;97804.06;;;7.18;89.80
78717;BME280;68045;50.042;14.432;2023-12-14T09:28:16;97809.78;;;7.15;90.35
78717;BME280;68045;50.042;14.432;2023-12-14T09:32:17;97821.56;;;7.24;90.05
78717;BME280;68045;50.042;14.432;2023-12-14T09:36:18;97826.91;;;7.36;89.51
78717;BME280;68045;50.042;14.432;2023-12-14T09:40:20;97820.31;;;7.63;88.00
78717;BME280;68045;50.042;14.432;2023-12-14T09:44:22;97828.09;;;7.70;88.04
78717;BME280;68045;50.042;14.432;2023-12-14T09:48:24;97831.28;;;8.02;86.76
78717;BME280;68045;50.042;14.432;2023-12-14T09:52:25;97840.94;;;8.20;85.45
78717;BME280;68045;50.042;14.432;2023-12-14T09:56:27;97849.16;;;8.23;86.01
78717;BME280;68045;50.042;14.432;2023-12-14T10:00:35;97852.41;;;8.25;86.65
78717;BME280;68045;50.042;14.432;2023-12-14T10:04:37;97859.13;;;8.21;86.27
78717;BME280;68045;50.042;14.432;2023-12-14T10:08:38;97863.31;;;8.11;86.56
78717;BME280;68045;50.042;14.432;2023-12-14T10:12:51;97858.19;;;8.16;86.11
78717;BME280;68045;50.042;14.432;2023-12-14T10:16:53;97852.81;;;8.22;86.55
78717;BME280;68045;50.042;14.432;2023-12-14T10:20:54;97858.97;;;8.16;86.90
78717;BME280;68045;50.042;14.432;2023-12-14T10:24:56;97863.47;;;8.27;85.79
78717;BME280;68045;50.042;14.432;2023-12-14T10:28:57;97860.47;;;8.42;86.14
78717;BME280;68045;50.042;14.432;2023-12-14T10:32:58;97869.41;;;8.53;86.03
78717;BME280;68045;50.042;14.432;2023-12-14T10:37:00;97870.66;;;8.62;85.46
78717;BME280;68045;50.042;14.432;2023-12-14T10:41:04;97867.81;;;8.87;84.54
78717;BME280;68045;50.042;14.432;2023-12-14T10:45:05;97887.75;;;9.06;83.94
78717;BME280;68045;50.042;14.432;2023-12-14T10:49:07;97892.88;;;9.13;83.14
78717;BME280;68045;50.042;14.432;2023-12-14T10:53:08;97893.22;;;9.28;82.90
78717;BME280;68045;50.042;14.432;2023-12-14T10:57:10;97899.16;;;9.47;81.64
78717;BME280;68045;50.042;14.432;2023-12-14T11:01:13;97908.47;;;9.78;80.56
78717;BME280;68045;50.042;14.432;2023-12-14T11:05:16;97915.03;;;10.16;78.59
78717;BME280;68045;50.042;14.432;2023-12-14T11:09:18;97918.44;;;9.88;79.69
78717;BME280;68045;50.042;14.432;2023-12-14T11:13:20;97911.72;;;9.57;80.18
78717;BME280;68045;50.042;14.432;2023-12-14T11:17:21;97917.91;;;9.51;79.90
78717;BME280;68045;50.042;14.432;2023-12-14T11:21:24;97925.41;;;9.30;80.89
78717;BME280;68045;50.042;14.432;2023-12-14T11:25:26;97923.22;;;9.27;81.67
78717;BME280;68045;50.042;14.432;2023-12-14T11:29:27;97930.78;;;9.47;80.81
78717;BME280;68045;50.042;14.432;2023-12-14T11:33:27;97932.59;;;9.47;80.59
78717;BME280;68045;50.042;14.432;2023-12-14T11:37:29;97935.69;;;9.08;81.02
78717;BME280;68045;50.042;14.432;2023-12-14T11:41:30;97938.09;;;9.22;80.98
78717;BME280;68045;50.042;14.432;2023-12-14T11:45:32;97938.06;;;8.87;81.64
78717;BME280;68045;50.042;14.432;2023-12-14T11:49:33;97949.28;;;8.94;79.83
78717;BME280;68045;50.042;14.432;2023-12-14T11:53:35;97950.69;;;8.96;78.07
78717;BME280;68045;50.042;14.432;2023-12-14T11:57:39;97947.94;;;8.91;78.71
78717;BME280;68045;50.042;14.432;2023-12-14T12:01:56;97954.91;;;8.97;78.61
78717;BME280;68045;50.042;14.432;2023-12-14T12:05:57;97955.03;;;8.91;77.38
78717;BME280;68045;50.042;14.432;2023-12-14T12:09:58;97951.69;;;8.84;78.44
78717;BME280;68045;50.042;14.432;2023-12-14T12:13:59;97957.63;;;8.79;78.40
78717;BME280;68045;50.042;14.432;2023-12-14T12:18:12;97959.47;;;8.78;78.01
78717;BME280;68045;50.042;14.432;2023-12-14T12:22:14;97962.97;;;8.72;77.80
78717;BME280;68045;50.042;14.432;2023-12-14T12:26:15;97970.50;;;8.57;78.02
78717;BME280;68045;50.042;14.432;2023-12-14T12:30:17;97979.97;;;8.58;78.08
78717;BME280;68045;50.042;14.432;2023-12-14T12:34:18;97975.75;;;8.57;78.14
78717;BME280;68045;50.042;14.432;2023-12-14T12:38:19;97980.50;;;8.78;77.72
78717;BME280;68045;50.042;14.432;2023-12-14T12:42:20;97990.09;;;8.73;77.64
78717;BME280;68045;50.042;14.432;2023-12-14T12:46:22;97994.47;;;8.79;77.73
78717;BME280;68045;50.042;14.432;2023-12-14T12:50:23;98001.72;;;8.95;77.06
78717;BME280;68045;50.042;14.432;2023-12-14T12:54:24;98007.66;;;8.91;77.54
78717;BME280;68045;50.042;14.432;2023-12-14T12:58:25;98007.19;;;8.94;77.63
78717;BME280;68045;50.042;14.432;2023-12-14T13:02:26;98015.66;;;8.84;77.47
78717;BME280;68045;50.042;14.432;2023-12-14T13:06:27;98019.31;;;8.95;75.85
78717;BME280;68045;50.042;14.432;2023-12-14T13:10:28;98025.72;;;8.87;77.46
78717;BME280;68045;50.042;14.432;2023-12-14T13:14:31;98024.03;;;8.93;76.68
78717;BME280;68045;50.042;14.432;2023-12-14T13:18:34;98032.16;;;8.91;77.04
78717;BME280;68045;50.042;14.432;2023-12-14T13:22:35;98034.59;;;9.04;75.69
78717;BME280;68045;50.042;14.432;2023-12-14T13:26:36;98044.97;;;8.99;75.64
78717;BME280;68045;50.042;14.432;2023-12-14T13:30:37;98046.09;;;8.92;75.73
78717;BME280;68045;50.042;14.432;2023-12-14T13:34:38;98049.28;;;8.82;76.04
78717;BME280;68045;50.042;14.432;2023-12-14T13:38:39;98058.41;;;8.79;75.98
78717;BME280;68045;50.042;14.432;2023-12-14T13:42:40;98058.88;;;8.76;76.39
78717;BME280;68045;50.042;14.432;2023-12-14T13:46:40;98073.00;;;8.64;76.07
78717;BME280;68045;50.042;14.432;2023-12-14T13:50:41;98082.19;;;8.73;76.33
78717;BME280;68045;50.042;14.432;2023-12-14T13:54:42;98084.69;;;8.68;77.14
78717;BME280;68045;50.042;14.432;2023-12-14T13:58:43;98089.66;;;8.76;76.75
78717;BME280;68045;50.042;14.432;2023-12-14T14:02:44;98098.72;;;8.62;76.50
78717;BME280;68045;50.042;14.432;2023-12-14T14:06:45;98109.34;;;8.55;75.88
78717;BME280;68045;50.042;14.432;2023-12-14T14:10:46;98124.63;;;8.46;76.58
78717;BME280;68045;50.042;14.432;2023-12-14T14:14:47;98135.94;;;8.47;76.66
78717;BME280;68045;50.042;14.432;2023-12-14T14:18:48;98145.34;;;8.36;77.36
78717;BME280;68045;50.042;14.432;2023-12-14T14:22:49;98144.72;;;8.34;78.08
78717;BME280;68045;50.042;14.432;2023-12-14T14:26:50;98155.66;;;8.31;77.71
78717;BME280;68045;50.042;14.432;2023-12-14T14:30:52;98164.44;;;8.25;78.72
78717;BME280;68045;50.042;14.432;2023-12-14T14:34:53;98167.88;;;8.25;78.51
78717;BME280;68045;50.042;14.432;2023-12-14T14:38:55;98163.38;;;8.33;77.99
78717;BME280;68045;50.042;14.432;2023-12-14T14:42:57;98169.84;;;8.12;78.68
78717;BME280;68045;50.042;14.432;2023-12-14T14:46:59;98179.53;;;8.11;78.64
78717;BME280;68045;50.042;14.432;2023-12-14T14:51:00;98186.63;;;8.11;79.47
78717;BME280;68045;50.042;14.432;2023-12-14T14:55:01;98193.69;;;8.10;79.66
78717;BME280;68045;50.042;14.432;2023-12-14T14:59:02;98199.78;;;8.11;79.58
78717;BME280;68045;50.042;14.432;2023-12-14T15:03:03;98210.16;;;7.99;80.70
78717;BME280;68045;50.042;14.432;2023-12-14T15:07:04;98215.84;;;7.96;80.78
78717;BME280;68045;50.042;14.432;2023-12-14T15:11:05;98222.47;;;8.05;81.89
78717;BME280;68045;50.042;14.432;2023-12-14T15:15:10;98231.19;;;7.99;81.59
78717;BME280;68045;50.042;14.432;2023-12-14T15:19:11;98241.47;;;8.01;82.34
78717;BME280;68045;50.042;14.432;2023-12-14T15:23:12;98250.56;;;8.05;81.64
78717;BME280;68045;50.042;14.432;2023-12-14T15:27:12;98262.19;;;7.90;81.36
78717;BME280;68045;50.042;14.432;2023-12-14T15:31:15;98263.22;;;7.89;80.81
78717;BME280;68045;50.042;14.432;2023-12-14T15:35:16;98255.56;;;7.81;80.68
78717;BME280;68045;50.042;14.432;2023-12-14T15:39:17;98268.00;;;7.61;81.59
78717;BME280;68045;50.042;14.432;2023-12-14T15:43:18;98270.25;;;7.57;81.78
78717;BME280;68045;50.042;14.432;2023-12-14T15:47:18;98276.34;;;7.51;81.20
78717;BME280;68045;50.042;14.432;2023-12-14T15:51:20;98291.69;;;7.54;80.52
78717;BME280;68045;50.042;14.432;2023-12-14T15:55:21;98299.41;;;7.42;80.08
78717;BME280;68045;50.042;14.432;2023-12-14T15:59:25;98307.97;;;7.18;81.03
78717;BME280;68045;50.042;14.432;2023-12-14T16:03:27;98313.66;;;7.15;80.93
78717;BME280;68045;50.042;14.432;2023-12-14T16:07:28;98322.91;;;7.18;81.02
78717;BME280;68045;50.042;14.432;2023-12-14T16:11:29;98328.84;;;7.00;81.46
78717;BME280;68045;50.042;14.432;2023-12-14T16:15:30;98336.50;;;7.01;82.42
78717;BME280;68045;50.042;14.432;2023-12-14T16:19:31;98352.03;;;6.89;82.99
78717;BME280;68045;50.042;14.432;2023-12-14T16:23:31;98350.03;;;6.98;83.24
78717;BME280;68045;50.042;14.432;2023-12-14T16:27:32;98353.03;;;7.08;82.41
78717;BME280;68045;50.042;14.432;2023-12-14T16:31:39;98371.41;;;7.15;82.71
78717;BME280;68045;50.042;14.432;2023-12-14T16:35:40;98372.63;;;7.12;82.08
78717;BME280;68045;50.042;14.432;2023-12-14T16:39:41;98379.06;;;7.16;82.58
78717;BME280;68045;50.042;14.432;2023-12-14T16:43:42;98390.56;;;7.09;83.14
78717;BME280;68045;50.042;14.432;2023-12-14T16:47:43;98402.50;;;6.98;82.79
78717;BME280;68045;50.042;14.432;2023-12-14T16:51:44;98400.88;;;6.97;83.39
78717;BME280;68045;50.042;14.432;2023-12-14T16:55:45;98410.19;;;6.93;82.77
78717;BME280;68045;50.042;14.432;2023-12-14T16:59:46;98417.47;;;6.91;82.59
78717;BME280;68045;50.042;14.432;2023-12-14T17:03:47;98432.78;;;6.81;82.73
78717;BME280;68045;50.042;14.432;2023-12-14T17:07:47;98437.63;;;6.84;82.45
78717;BME280;68045;50.042;14.432;2023-12-14T17:11:49;98437.81;;;6.82;82.54
78717;BME280;68045;50.042;14.432;2023-12-14T17:15:50;98451.34;;;6.86;82.80
78717;BME280;68045;50.042;14.432;2023-12-14T17:19:51;98456.19;;;6.82;81.65
78717;BME280;68045;50.042;14.432;2023-12-14T17:23:53;98460.25;;;6.92;81.79
78717;BME280;68045;50.042;14.432;2023-12-14T17:27:54;98465.88;;;6.95;80.67
78717;BME280;68045;50.042;14.432;2023-12-14T17:31:54;98467.09;;;6.99;81.66
78717;BME280;68045;50.042;14.432;2023-12-14T17:35:55;98467.09;;;6.86;81.50
78717;BME280;68045;50.042;14.432;2023-12-14T17:39:56;98476.56;;;6.80;80.86
78717;BME280;68045;50.042;14.432;2023-12-14T17:43:57;98481.22;;;6.85;80.04
78717;BME280;68045;50.042;14.432;2023-12-14T17:47:58;98485.44;;;6.73;80.16
78717;BME280;68045;50.042;14.432;2023-12-14T17:52:00;98485.00;;;6.69;80.05
78717;BME280;68045;50.042;14.432;2023-12-14T17:56:01;98506.19;;;6.68;80.37
78717;BME280;68045;50.042;14.432;2023-12-14T18:00:03;98513.88;;;6.76;79.89
78717;BME280;68045;50.042;14.432;2023-12-14T18:04:05;98516.13;;;6.85;80.06
78717;BME280;68045;50.042;14.432;2023-12-14T18:08:05;98530.03;;;6.79;80.32
78717;BME280;68045;50.042;14.432;2023-12-14T18:12:06;98543.34;;;6.78;80.87
78717;BME280;68045;50.042;14.432;2023-12-14T18:16:08;98546.78;;;6.72;79.94
78717;BME280;68045;50.042;14.432;2023-12-14T18:20:09;98553.41;;;6.68;78.47
78717;BME280;68045;50.042;14.432;2023-12-14T18:24:10;98562.47;;;6.58;79.31
78717;BME280;68045;50.042;14.432;2023-12-14T18:28:12;98571.13;;;6.52;77.35
78717;BME280;68045;50.042;14.432;2023-12-14T18:32:12;98582.53;;;6.31;76.56
78717;BME280;68045;50.042;14.432;2023-12-14T18:36:13;98589.16;;;6.34;76.70
78717;BME280;68045;50.042;14.432;2023-12-14T18:40:16;98594.25;;;6.36;76.76
78717;BME280;68045;50.042;14.432;2023-12-14T18:44:19;98612.16;;;6.32;76.15
78717;BME280;68045;50.042;14.432;2023-12-14T18:48:20;98613.72;;;6.26;77.10
78717;BME280;68045;50.042;14.432;2023-12-14T18:52:21;98621.75;;;6.18;76.73
78717;BME280;68045;50.042;14.432;2023-12-14T18:56:22;98625.34;;;6.11;75.50
78717;BME280;68045;50.042;14.432;2023-12-14T19:00:24;98631.81;;;6.15;75.09
78717;BME280;68045;50.042;14.432;2023-12-14T19:04:26;98647.50;;;6.08;75.45
78717;BME280;68045;50.042;14.432;2023-12-14T19:08:26;98653.69;;;6.00;75.09
78717;BME280;68045;50.042;14.432;2023-12-14T19:12:27;98659.16;;;6.05;75.44
78717;BME280;68045;50.042;14.432;2023-12-14T19:16:29;98658.19;;;6.07;75.51
78717;BME280;68045;50.042;14.432;2023-12-14T19:20:31;98671.28;;;6.07;75.51
78717;BME280;68045;50.042;14.432;2023-12-14T19:24:32;98667.97;;;5.98;75.24
78717;BME280;68045;50.042;14.432;2023-12-14T19:28:35;98677.75;;;6.11;75.59
78717;BME280;68045;50.042;14.432;2023-12-14T19:32:36;98685.84;;;6.16;75.32
78717;BME280;68045;50.042;14.432;2023-12-14T19:36:38;98690.69;;;6.19;75.16
78717;BME280;68045;50.042;14.432;2023-12-14T19:40:39;98697.19;;;6.23;75.43
78717;BME280;68045;50.042;14.432;2023-12-14T19:44:40;98703.00;;;6.18;76.21
78717;BME280;68045;50.042;14.432;2023-12-14T19:48:41;98708.38;;;6.10;75.58
78717;BME280;68045;50.042;14.432;2023-12-14T19:52:43;98712.06;;;6.16;75.99
78717;BME280;68045;50.042;14.432;2023-12-14T19:56:44;98709.00;;;6.12;76.34
78717;BME280;68045;50.042;14.432;2023-12-14T20:00:46;98715.69;;;6.15;76.67
78717;BME280;68045;50.042;14.432;2023-12-14T20:04:46;98714.88;;;6.14;76.27
78717;BME280;68045;50.042;14.432;2023-12-14T20:08:47;98710.09;;;6.24;75.42
78717;BME280;68045;50.042;14.432;2023-12-14T20:12:48;98716.91;;;6.19;75.53
78717;BME280;68045;50.042;14.432;2023-12-14T20:16:49;98732.31;;;6.00;74.79
78717;BME280;68045;50.042;14.432;2023-12-14T20:20:50;98737.34;;;6.02;75.47
78717;BME280;68045;50.042;14.432;2023-12-14T20:24:51;98745.94;;;5.96;75.29
78717;BME280;68045;50.042;14.432;2023-12-14T20:28:52;98751.81;;;5.98;75.05
78717;BME280;68045;50.042;14.432;2023-12-14T20:32:53;98756.63;;;5.94;75.60
78717;BME280;68045;50.042;14.432;2023-12-14T20:36:54;98770.56;;;5.80;75.82
78717;BME280;68045;50.042;14.432;2023-12-14T20:40:55;98781.69;;;6.03;75.46
78717;BME280;68045;50.042;14.432;2023-12-14T20:44:56;98776.16;;;6.13;74.60
78717;BME280;68045;50.042;14.432;2023-12-14T20:48:57;98786.97;;;5.89;75.75
78717;BME280;68045;50.042;14.432;2023-12-14T20:52:58;98799.63;;;5.85;75.60
78717;BME280;68045;50.042;14.432;2023-12-14T20:56:58;98799.63;;;6.00;75.72
78717;BME280;68045;50.042;14.432;2023-12-14T21:00:59;98807.56;;;5.92;75.19
78717;BME280;68045;50.042;14.432;2023-12-14T21:05:00;98816.31;;;5.99;75.29
78717;BME280;68045;50.042;14.432;2023-12-14T21:09:01;98820.66;;;5.92;75.33
78717;BME280;68045;50.042;14.432;2023-12-14T21:13:02;98820.66;;;5.92;75.14
78717;BME280;68045;50.042;14.432;2023-12-14T21:17:03;98826.66;;;5.86;75.42